sensor_id;sensor_type;location;lat;lon;timestamp;P1;durP1;ratioP1;P2;durP2;ratioP2
44137;SDS011;29800;55.942;37.314;2022-09-29T00:01:32;6.63;;;4.07;;
44137;SDS011;29800;55.942;37.314;2022-09-29T00:03:58;7.80;;;4.22;;
44137;SDS011;29800;55.942;37.314;2022-09-29T00:06:24;5.63;;;3.90;;
44137;SDS011;29800;55.942;37.314;2022-09-29T00:08:50;5.78;;;3.70;;
44137;SDS011;29800;55.942;37.314;2022-09-29T00:11:17;8.23;;;4.50;;
44137;SDS011;29800;55.942;37.314;2022-09-29T00:13:44;6.40;;;3.88;;
44137;SDS011;29800;55.942;37.314;2022-09-29T00:16:12;6.90;;;4.05;;
44137;SDS011;29800;55.942;37.314;2022-09-29T00:18:38;6.00;;;3.90;;
44137;SDS011;29800;55.942;37.314;2022-09-29T00:21:08;6.55;;;3.70;;
44137;SDS011;29800;55.942;37.314;2022-09-29T00:23:37;6.28;;;3.55;;
44137;SDS011;29800;55.942;37.314;2022-09-29T00:26:05;7.85;;;3.65;;
44137;SDS011;29800;55.942;37.314;2022-09-29T00:28:33;7.97;;;4.30;;
44137;SDS011;29800;55.942;37.314;2022-09-29T00:31:00;6.13;;;3.97;;
44137;SDS011;29800;55.942;37.314;2022-09-29T00:33:31;5.85;;;3.75;;
44137;SDS011;29800;55.942;37.314;2022-09-29T00:36:00;6.43;;;3.78;;
44137;SDS011;29800;55.942;37.314;2022-09-29T00:38:28;9.07;;;4.28;;
44137;SDS011;29800;55.942;37.314;2022-09-29T00:40:55;9.07;;;3.80;;
44137;SDS011;29800;55.942;37.314;2022-09-29T00:43:23;7.50;;;3.70;;
44137;SDS011;29800;55.942;37.314;2022-09-29T00:46:09;6.18;;;4.20;;
44137;SDS011;29800;55.942;37.314;2022-09-29T00:48:37;7.10;;;4.03;;
44137;SDS011;29800;55.942;37.314;2022-09-29T00:51:04;7.05;;;4.25;;
44137;SDS011;29800;55.942;37.314;2022-09-29T00:53:31;6.75;;;4.57;;
44137;SDS011;29800;55.942;37.314;2022-09-29T00:56:00;7.15;;;4.85;;
44137;SDS011;29800;55.942;37.314;2022-09-29T00:58:31;7.45;;;4.38;;
44137;SDS011;29800;55.942;37.314;2022-09-29T01:00:58;5.57;;;4.38;;
44137;SDS011;29800;55.942;37.314;2022-09-29T01:03:26;6.10;;;3.72;;
44137;SDS011;29800;55.942;37.314;2022-09-29T01:06:02;12.15;;;5.55;;
44137;SDS011;29800;55.942;37.314;2022-09-29T01:11:01;8.27;;;5.03;;
44137;SDS011;29800;55.942;37.314;2022-09-29T01:13:28;7.45;;;5.43;;
44137;SDS011;29800;55.942;37.314;2022-09-29T01:15:56;7.03;;;5.60;;
44137;SDS011;29800;55.942;37.314;2022-09-29T01:18:22;7.00;;;5.13;;
44137;SDS011;29800;55.942;37.314;2022-09-29T01:23:45;6.93;;;4.50;;
44137;SDS011;29800;55.942;37.314;2022-09-29T01:32:27;6.38;;;4.00;;
44137;SDS011;29800;55.942;37.314;2022-09-29T01:40:53;7.43;;;3.30;;
44137;SDS011;29800;55.942;37.314;2022-09-29T01:49:10;10.30;;;6.18;;
44137;SDS011;29800;55.942;37.314;2022-09-29T01:51:40;9.57;;;5.93;;
44137;SDS011;29800;55.942;37.314;2022-09-29T01:54:16;7.28;;;4.88;;
44137;SDS011;29800;55.942;37.314;2022-09-29T01:56:48;5.57;;;4.45;;
44137;SDS011;29800;55.942;37.314;2022-09-29T01:59:38;6.20;;;4.10;;
44137;SDS011;29800;55.942;37.314;2022-09-29T02:02:12;6.78;;;4.38;;
44137;SDS011;29800;55.942;37.314;2022-09-29T02:04:45;7.15;;;4.00;;
44137;SDS011;29800;55.942;37.314;2022-09-29T02:07:23;7.18;;;3.70;;
44137;SDS011;29800;55.942;37.314;2022-09-29T02:09:58;7.95;;;4.78;;
44137;SDS011;29800;55.942;37.314;2022-09-29T02:12:31;8.10;;;4.80;;
44137;SDS011;29800;55.942;37.314;2022-09-29T02:14:59;8.48;;;4.43;;
44137;SDS011;29800;55.942;37.314;2022-09-29T02:17:32;5.90;;;4.30;;
44137;SDS011;29800;55.942;37.314;2022-09-29T02:20:03;6.85;;;4.18;;
44137;SDS011;29800;55.942;37.314;2022-09-29T02:22:30;6.60;;;4.30;;
44137;SDS011;29800;55.942;37.314;2022-09-29T02:24:57;6.32;;;4.03;;
44137;SDS011;29800;55.942;37.314;2022-09-29T02:27:25;6.53;;;4.32;;
44137;SDS011;29800;55.942;37.314;2022-09-29T02:29:54;7.80;;;4.85;;
44137;SDS011;29800;55.942;37.314;2022-09-29T02:32:23;7.72;;;4.65;;
44137;SDS011;29800;55.942;37.314;2022-09-29T02:34:50;7.30;;;6.03;;
44137;SDS011;29800;55.942;37.314;2022-09-29T02:48:30;8.48;;;5.45;;
44137;SDS011;29800;55.942;37.314;2022-09-29T03:00:24;6.82;;;4.80;;
44137;SDS011;29800;55.942;37.314;2022-09-29T03:02:39;11.20;;;5.25;;
44137;SDS011;29800;55.942;37.314;2022-09-29T03:05:07;10.65;;;5.45;;
44137;SDS011;29800;55.942;37.314;2022-09-29T03:07:39;7.47;;;4.90;;
44137;SDS011;29800;55.942;37.314;2022-09-29T03:10:06;6.72;;;4.40;;
44137;SDS011;29800;55.942;37.314;2022-09-29T03:12:33;9.45;;;6.50;;
44137;SDS011;29800;55.942;37.314;2022-09-29T03:15:01;7.47;;;5.47;;
44137;SDS011;29800;55.942;37.314;2022-09-29T03:17:29;7.30;;;5.47;;
44137;SDS011;29800;55.942;37.314;2022-09-29T03:19:55;9.70;;;5.30;;
44137;SDS011;29800;55.942;37.314;2022-09-29T03:22:22;8.82;;;5.25;;
44137;SDS011;29800;55.942;37.314;2022-09-29T03:24:49;9.48;;;5.22;;
44137;SDS011;29800;55.942;37.314;2022-09-29T03:27:15;7.22;;;5.50;;
44137;SDS011;29800;55.942;37.314;2022-09-29T03:29:41;10.13;;;5.60;;
44137;SDS011;29800;55.942;37.314;2022-09-29T03:32:07;7.05;;;5.30;;
44137;SDS011;29800;55.942;37.314;2022-09-29T03:34:34;9.63;;;7.75;;
44137;SDS011;29800;55.942;37.314;2022-09-29T03:37:00;14.00;;;8.45;;
44137;SDS011;29800;55.942;37.314;2022-09-29T03:39:26;8.05;;;6.40;;
44137;SDS011;29800;55.942;37.314;2022-09-29T03:41:53;8.57;;;6.70;;
44137;SDS011;29800;55.942;37.314;2022-09-29T03:44:19;7.80;;;6.00;;
44137;SDS011;29800;55.942;37.314;2022-09-29T03:46:45;7.72;;;5.93;;
44137;SDS011;29800;55.942;37.314;2022-09-29T03:49:12;8.80;;;5.63;;
44137;SDS011;29800;55.942;37.314;2022-09-29T03:51:42;9.38;;;6.00;;
44137;SDS011;29800;55.942;37.314;2022-09-29T03:54:09;9.35;;;5.05;;
44137;SDS011;29800;55.942;37.314;2022-09-29T03:56:36;11.80;;;5.50;;
44137;SDS011;29800;55.942;37.314;2022-09-29T03:59:05;9.88;;;5.43;;
44137;SDS011;29800;55.942;37.314;2022-09-29T04:01:34;8.93;;;5.35;;
44137;SDS011;29800;55.942;37.314;2022-09-29T04:04:00;10.95;;;5.55;;
44137;SDS011;29800;55.942;37.314;2022-09-29T04:06:26;9.85;;;5.30;;
44137;SDS011;29800;55.942;37.314;2022-09-29T04:08:52;7.25;;;5.18;;
44137;SDS011;29800;55.942;37.314;2022-09-29T04:11:18;7.57;;;5.50;;
44137;SDS011;29800;55.942;37.314;2022-09-29T04:13:44;7.78;;;5.40;;
44137;SDS011;29800;55.942;37.314;2022-09-29T04:16:10;8.48;;;5.15;;
44137;SDS011;29800;55.942;37.314;2022-09-29T04:18:36;10.15;;;5.30;;
44137;SDS011;29800;55.942;37.314;2022-09-29T04:21:06;11.02;;;5.50;;
44137;SDS011;29800;55.942;37.314;2022-09-29T04:23:33;9.02;;;5.43;;
44137;SDS011;29800;55.942;37.314;2022-09-29T04:26:01;7.55;;;5.07;;
44137;SDS011;29800;55.942;37.314;2022-09-29T04:28:29;6.93;;;4.80;;
44137;SDS011;29800;55.942;37.314;2022-09-29T04:30:56;8.30;;;5.40;;
44137;SDS011;29800;55.942;37.314;2022-09-29T04:33:23;7.55;;;5.47;;
44137;SDS011;29800;55.942;37.314;2022-09-29T04:35:49;7.50;;;5.57;;
44137;SDS011;29800;55.942;37.314;2022-09-29T04:38:15;7.88;;;5.20;;
44137;SDS011;29800;55.942;37.314;2022-09-29T04:40:42;11.77;;;5.40;;
44137;SDS011;29800;55.942;37.314;2022-09-29T04:43:08;8.55;;;5.53;;
44137;SDS011;29800;55.942;37.314;2022-09-29T04:45:34;9.00;;;5.80;;
44137;SDS011;29800;55.942;37.314;2022-09-29T04:48:00;6.88;;;5.10;;
44137;SDS011;29800;55.942;37.314;2022-09-29T04:50:26;11.13;;;5.20;;
44137;SDS011;29800;55.942;37.314;2022-09-29T04:52:52;9.25;;;5.50;;
44137;SDS011;29800;55.942;37.314;2022-09-29T04:55:18;12.00;;;5.85;;
44137;SDS011;29800;55.942;37.314;2022-09-29T04:57:44;10.32;;;5.75;;
44137;SDS011;29800;55.942;37.314;2022-09-29T05:00:11;8.05;;;5.00;;
44137;SDS011;29800;55.942;37.314;2022-09-29T05:02:37;8.07;;;5.20;;
44137;SDS011;29800;55.942;37.314;2022-09-29T05:05:04;7.85;;;5.15;;
44137;SDS011;29800;55.942;37.314;2022-09-29T05:07:33;9.18;;;5.18;;
44137;SDS011;29800;55.942;37.314;2022-09-29T05:10:00;8.27;;;4.95;;
44137;SDS011;29800;55.942;37.314;2022-09-29T05:12:28;7.90;;;5.30;;
44137;SDS011;29800;55.942;37.314;2022-09-29T05:14:54;8.25;;;5.10;;
44137;SDS011;29800;55.942;37.314;2022-09-29T05:17:20;8.23;;;5.38;;
44137;SDS011;29800;55.942;37.314;2022-09-29T05:19:46;10.18;;;5.38;;
44137;SDS011;29800;55.942;37.314;2022-09-29T05:22:12;9.93;;;4.88;;
44137;SDS011;29800;55.942;37.314;2022-09-29T05:24:38;7.15;;;4.80;;
44137;SDS011;29800;55.942;37.314;2022-09-29T05:27:04;7.25;;;5.15;;
44137;SDS011;29800;55.942;37.314;2022-09-29T05:29:31;8.02;;;4.82;;
44137;SDS011;29800;55.942;37.314;2022-09-29T05:31:57;7.68;;;5.00;;
44137;SDS011;29800;55.942;37.314;2022-09-29T05:34:23;8.43;;;4.68;;
44137;SDS011;29800;55.942;37.314;2022-09-29T05:36:49;7.43;;;4.70;;
44137;SDS011;29800;55.942;37.314;2022-09-29T05:39:15;11.95;;;5.50;;
44137;SDS011;29800;55.942;37.314;2022-09-29T05:41:42;7.40;;;4.95;;
44137;SDS011;29800;55.942;37.314;2022-09-29T05:44:08;7.10;;;4.63;;
44137;SDS011;29800;55.942;37.314;2022-09-29T05:46:34;9.07;;;4.43;;
44137;SDS011;29800;55.942;37.314;2022-09-29T05:49:00;6.78;;;4.43;;
44137;SDS011;29800;55.942;37.314;2022-09-29T05:51:26;9.85;;;4.68;;
44137;SDS011;29800;55.942;37.314;2022-09-29T05:53:52;6.93;;;4.25;;
44137;SDS011;29800;55.942;37.314;2022-09-29T05:56:20;8.13;;;4.43;;
44137;SDS011;29800;55.942;37.314;2022-09-29T05:58:48;7.00;;;4.30;;
44137;SDS011;29800;55.942;37.314;2022-09-29T06:01:15;8.05;;;4.30;;
44137;SDS011;29800;55.942;37.314;2022-09-29T06:03:43;6.63;;;4.45;;
44137;SDS011;29800;55.942;37.314;2022-09-29T06:06:10;7.95;;;3.92;;
44137;SDS011;29800;55.942;37.314;2022-09-29T06:08:39;7.05;;;4.95;;
44137;SDS011;29800;55.942;37.314;2022-09-29T06:11:06;6.97;;;4.50;;
44137;SDS011;29800;55.942;37.314;2022-09-29T06:13:41;8.65;;;5.35;;
44137;SDS011;29800;55.942;37.314;2022-09-29T06:16:08;6.60;;;4.57;;
44137;SDS011;29800;55.942;37.314;2022-09-29T06:18:35;12.43;;;4.32;;
44137;SDS011;29800;55.942;37.314;2022-09-29T06:21:05;5.88;;;3.92;;
44137;SDS011;29800;55.942;37.314;2022-09-29T06:23:33;9.32;;;4.55;;
44137;SDS011;29800;55.942;37.314;2022-09-29T06:26:02;7.55;;;4.70;;
44137;SDS011;29800;55.942;37.314;2022-09-29T06:28:30;7.13;;;4.20;;
44137;SDS011;29800;55.942;37.314;2022-09-29T06:31:03;8.63;;;4.70;;
44137;SDS011;29800;55.942;37.314;2022-09-29T06:33:35;5.75;;;4.55;;
44137;SDS011;29800;55.942;37.314;2022-09-29T06:36:02;9.88;;;4.53;;
44137;SDS011;29800;55.942;37.314;2022-09-29T06:38:54;5.15;;;3.95;;
44137;SDS011;29800;55.942;37.314;2022-09-29T06:41:20;7.55;;;4.03;;
44137;SDS011;29800;55.942;37.314;2022-09-29T06:43:46;6.72;;;4.72;;
44137;SDS011;29800;55.942;37.314;2022-09-29T06:46:12;7.70;;;4.50;;
44137;SDS011;29800;55.942;37.314;2022-09-29T06:48:38;7.85;;;4.93;;
44137;SDS011;29800;55.942;37.314;2022-09-29T06:51:07;10.38;;;5.25;;
44137;SDS011;29800;55.942;37.314;2022-09-29T06:53:34;10.88;;;5.00;;
44137;SDS011;29800;55.942;37.314;2022-09-29T06:56:00;9.02;;;5.60;;
44137;SDS011;29800;55.942;37.314;2022-09-29T06:58:27;9.77;;;6.28;;
44137;SDS011;29800;55.942;37.314;2022-09-29T07:00:53;11.05;;;6.15;;
44137;SDS011;29800;55.942;37.314;2022-09-29T07:03:20;13.38;;;5.78;;
44137;SDS011;29800;55.942;37.314;2022-09-29T07:05:46;12.70;;;6.50;;
44137;SDS011;29800;55.942;37.314;2022-09-29T07:08:12;11.95;;;6.30;;
44137;SDS011;29800;55.942;37.314;2022-09-29T07:10:38;11.07;;;6.38;;
44137;SDS011;29800;55.942;37.314;2022-09-29T07:13:04;14.32;;;7.45;;
44137;SDS011;29800;55.942;37.314;2022-09-29T07:15:30;9.02;;;6.40;;
44137;SDS011;29800;55.942;37.314;2022-09-29T07:17:57;13.07;;;7.10;;
44137;SDS011;29800;55.942;37.314;2022-09-29T07:20:25;12.38;;;6.70;;
44137;SDS011;29800;55.942;37.314;2022-09-29T07:22:53;11.25;;;6.82;;
44137;SDS011;29800;55.942;37.314;2022-09-29T07:25:20;13.13;;;7.28;;
44137;SDS011;29800;55.942;37.314;2022-09-29T07:27:46;11.98;;;6.82;;
44137;SDS011;29800;55.942;37.314;2022-09-29T07:30:13;12.88;;;6.85;;
44137;SDS011;29800;55.942;37.314;2022-09-29T07:32:39;11.13;;;7.43;;
44137;SDS011;29800;55.942;37.314;2022-09-29T07:35:05;13.85;;;7.53;;
44137;SDS011;29800;55.942;37.314;2022-09-29T07:37:32;12.93;;;7.90;;
44137;SDS011;29800;55.942;37.314;2022-09-29T07:39:58;15.60;;;7.57;;
44137;SDS011;29800;55.942;37.314;2022-09-29T07:42:24;20.23;;;8.10;;
44137;SDS011;29800;55.942;37.314;2022-09-29T07:44:54;14.38;;;7.78;;
44137;SDS011;29800;55.942;37.314;2022-09-29T07:47:21;14.23;;;8.35;;
44137;SDS011;29800;55.942;37.314;2022-09-29T07:49:48;16.45;;;8.63;;
44137;SDS011;29800;55.942;37.314;2022-09-29T07:52:14;16.17;;;8.70;;
44137;SDS011;29800;55.942;37.314;2022-09-29T07:54:40;17.65;;;9.40;;
44137;SDS011;29800;55.942;37.314;2022-09-29T07:57:06;15.95;;;9.23;;
44137;SDS011;29800;55.942;37.314;2022-09-29T07:59:32;20.48;;;10.02;;
44137;SDS011;29800;55.942;37.314;2022-09-29T08:01:58;17.38;;;9.45;;
44137;SDS011;29800;55.942;37.314;2022-09-29T08:04:24;18.42;;;9.50;;
44137;SDS011;29800;55.942;37.314;2022-09-29T08:06:50;18.42;;;9.68;;
44137;SDS011;29800;55.942;37.314;2022-09-29T08:09:16;17.33;;;9.80;;
44137;SDS011;29800;55.942;37.314;2022-09-29T08:11:42;17.73;;;9.60;;
44137;SDS011;29800;55.942;37.314;2022-09-29T08:14:09;20.02;;;9.98;;
44137;SDS011;29800;55.942;37.314;2022-09-29T08:16:41;17.10;;;9.52;;
44137;SDS011;29800;55.942;37.314;2022-09-29T08:19:07;14.23;;;9.07;;
44137;SDS011;29800;55.942;37.314;2022-09-29T08:21:33;18.02;;;9.93;;
44137;SDS011;29800;55.942;37.314;2022-09-29T08:24:04;16.23;;;10.05;;
44137;SDS011;29800;55.942;37.314;2022-09-29T08:26:32;18.08;;;9.20;;
44137;SDS011;29800;55.942;37.314;2022-09-29T08:29:02;15.30;;;9.07;;
44137;SDS011;29800;55.942;37.314;2022-09-29T08:31:29;19.95;;;10.05;;
44137;SDS011;29800;55.942;37.314;2022-09-29T08:33:56;16.77;;;9.45;;
44137;SDS011;29800;55.942;37.314;2022-09-29T08:36:25;19.80;;;9.85;;
44137;SDS011;29800;55.942;37.314;2022-09-29T08:38:53;20.83;;;10.48;;
44137;SDS011;29800;55.942;37.314;2022-09-29T08:43:55;17.65;;;9.73;;
44137;SDS011;29800;55.942;37.314;2022-09-29T08:46:27;13.70;;;8.88;;
44137;SDS011;29800;55.942;37.314;2022-09-29T08:49:02;16.63;;;8.90;;
44137;SDS011;29800;55.942;37.314;2022-09-29T08:51:44;15.55;;;9.35;;
44137;SDS011;29800;55.942;37.314;2022-09-29T08:54:21;15.60;;;9.60;;
44137;SDS011;29800;55.942;37.314;2022-09-29T08:56:49;15.73;;;9.38;;
44137;SDS011;29800;55.942;37.314;2022-09-29T08:59:15;17.40;;;9.60;;
44137;SDS011;29800;55.942;37.314;2022-09-29T09:18:06;17.25;;;8.90;;
44137;SDS011;29800;55.942;37.314;2022-09-29T09:26:03;14.27;;;7.95;;
44137;SDS011;29800;55.942;37.314;2022-09-29T09:28:34;12.75;;;7.38;;
44137;SDS011;29800;55.942;37.314;2022-09-29T09:34:19;10.48;;;7.30;;
44137;SDS011;29800;55.942;37.314;2022-09-29T09:39:24;9.73;;;6.20;;
44137;SDS011;29800;55.942;37.314;2022-09-29T09:41:56;11.30;;;6.30;;
44137;SDS011;29800;55.942;37.314;2022-09-29T09:44:26;14.27;;;6.50;;
44137;SDS011;29800;55.942;37.314;2022-09-29T09:49:43;13.40;;;7.00;;
44137;SDS011;29800;55.942;37.314;2022-09-29T09:54:52;12.65;;;7.15;;
44137;SDS011;29800;55.942;37.314;2022-09-29T10:05:12;14.35;;;7.63;;
44137;SDS011;29800;55.942;37.314;2022-09-29T10:07:41;14.05;;;8.45;;
44137;SDS011;29800;55.942;37.314;2022-09-29T10:10:15;14.48;;;7.70;;
44137;SDS011;29800;55.942;37.314;2022-09-29T10:12:43;11.32;;;6.53;;
44137;SDS011;29800;55.942;37.314;2022-09-29T10:15:24;16.75;;;7.90;;
44137;SDS011;29800;55.942;37.314;2022-09-29T10:20:41;14.88;;;7.40;;
44137;SDS011;29800;55.942;37.314;2022-09-29T10:25:50;18.25;;;8.25;;
44137;SDS011;29800;55.942;37.314;2022-09-29T10:28:20;11.13;;;7.05;;
44137;SDS011;29800;55.942;37.314;2022-09-29T10:30:57;11.02;;;6.03;;
44137;SDS011;29800;55.942;37.314;2022-09-29T10:33:28;21.70;;;8.10;;
44137;SDS011;29800;55.942;37.314;2022-09-29T10:36:07;26.65;;;8.13;;
44137;SDS011;29800;55.942;37.314;2022-09-29T10:38:47;58.17;;;16.42;;
44137;SDS011;29800;55.942;37.314;2022-09-29T10:41:16;16.45;;;7.60;;
44137;SDS011;29800;55.942;37.314;2022-09-29T10:43:48;11.70;;;7.07;;
44137;SDS011;29800;55.942;37.314;2022-09-29T10:46:54;15.52;;;7.13;;
44137;SDS011;29800;55.942;37.314;2022-09-29T10:49:25;10.80;;;5.70;;
44137;SDS011;29800;55.942;37.314;2022-09-29T10:52:03;9.02;;;5.15;;
44137;SDS011;29800;55.942;37.314;2022-09-29T10:54:52;5.80;;;4.18;;
44137;SDS011;29800;55.942;37.314;2022-09-29T10:57:25;7.78;;;4.55;;
44137;SDS011;29800;55.942;37.314;2022-09-29T10:59:54;6.50;;;4.20;;
44137;SDS011;29800;55.942;37.314;2022-09-29T11:02:33;6.78;;;3.83;;
44137;SDS011;29800;55.942;37.314;2022-09-29T11:05:16;7.05;;;3.90;;
44137;SDS011;29800;55.942;37.314;2022-09-29T11:07:57;6.53;;;4.40;;
44137;SDS011;29800;55.942;37.314;2022-09-29T11:12:57;9.55;;;4.57;;
44137;SDS011;29800;55.942;37.314;2022-09-29T11:15:28;9.18;;;4.82;;
44137;SDS011;29800;55.942;37.314;2022-09-29T11:18:38;9.93;;;5.43;;
44137;SDS011;29800;55.942;37.314;2022-09-29T11:26:39;9.98;;;5.40;;
44137;SDS011;29800;55.942;37.314;2022-09-29T11:38:01;12.18;;;5.78;;
44137;SDS011;29800;55.942;37.314;2022-09-29T11:40:47;8.63;;;5.60;;
44137;SDS011;29800;55.942;37.314;2022-09-29T11:43:29;9.23;;;5.60;;
44137;SDS011;29800;55.942;37.314;2022-09-29T11:46:13;8.88;;;5.30;;
44137;SDS011;29800;55.942;37.314;2022-09-29T11:54:16;13.77;;;6.35;;
44137;SDS011;29800;55.942;37.314;2022-09-29T11:57:48;12.10;;;6.88;;
44137;SDS011;29800;55.942;37.314;2022-09-29T12:00:14;10.90;;;6.15;;
44137;SDS011;29800;55.942;37.314;2022-09-29T12:10:52;15.02;;;7.13;;
44137;SDS011;29800;55.942;37.314;2022-09-29T12:13:41;10.10;;;6.03;;
44137;SDS011;29800;55.942;37.314;2022-09-29T12:16:17;9.48;;;5.40;;
44137;SDS011;29800;55.942;37.314;2022-09-29T12:19:03;8.40;;;5.32;;
44137;SDS011;29800;55.942;37.314;2022-09-29T12:21:52;12.57;;;6.00;;
44137;SDS011;29800;55.942;37.314;2022-09-29T12:27:09;12.18;;;6.25;;
44137;SDS011;29800;55.942;37.314;2022-09-29T12:29:50;11.05;;;6.45;;
44137;SDS011;29800;55.942;37.314;2022-09-29T12:35:30;10.93;;;5.53;;
44137;SDS011;29800;55.942;37.314;2022-09-29T12:44:07;7.35;;;5.13;;
44137;SDS011;29800;55.942;37.314;2022-09-29T12:46:40;8.57;;;5.22;;
44137;SDS011;29800;55.942;37.314;2022-09-29T12:51:54;7.28;;;4.88;;
44137;SDS011;29800;55.942;37.314;2022-09-29T12:57:27;6.38;;;4.78;;
44137;SDS011;29800;55.942;37.314;2022-09-29T13:00:06;6.35;;;4.50;;
44137;SDS011;29800;55.942;37.314;2022-09-29T13:08:40;10.90;;;4.03;;
44137;SDS011;29800;55.942;37.314;2022-09-29T13:16:58;6.30;;;4.28;;
44137;SDS011;29800;55.942;37.314;2022-09-29T13:27:59;7.57;;;4.20;;
44137;SDS011;29800;55.942;37.314;2022-09-29T13:30:34;9.35;;;4.50;;
44137;SDS011;29800;55.942;37.314;2022-09-29T13:33:08;6.85;;;4.47;;
44137;SDS011;29800;55.942;37.314;2022-09-29T13:35:59;8.07;;;4.20;;
44137;SDS011;29800;55.942;37.314;2022-09-29T13:38:30;6.95;;;4.60;;
44137;SDS011;29800;55.942;37.314;2022-09-29T13:46:35;6.82;;;4.50;;
44137;SDS011;29800;55.942;37.314;2022-09-29T13:59:46;9.82;;;4.65;;
44137;SDS011;29800;55.942;37.314;2022-09-29T14:05:35;6.18;;;4.50;;
44137;SDS011;29800;55.942;37.314;2022-09-29T14:10:46;12.50;;;5.43;;
44137;SDS011;29800;55.942;37.314;2022-09-29T14:13:29;10.20;;;5.60;;
44137;SDS011;29800;55.942;37.314;2022-09-29T14:16:17;8.77;;;5.20;;
44137;SDS011;29800;55.942;37.314;2022-09-29T14:21:50;11.52;;;5.40;;
44137;SDS011;29800;55.942;37.314;2022-09-29T14:30:11;10.05;;;5.45;;
44137;SDS011;29800;55.942;37.314;2022-09-29T14:33:20;9.80;;;5.18;;
44137;SDS011;29800;55.942;37.314;2022-09-29T14:41:23;10.05;;;5.60;;
44137;SDS011;29800;55.942;37.314;2022-09-29T14:43:56;10.00;;;5.90;;
44137;SDS011;29800;55.942;37.314;2022-09-29T14:50:01;11.52;;;7.03;;
44137;SDS011;29800;55.942;37.314;2022-09-29T15:01:31;14.25;;;7.45;;
44137;SDS011;29800;55.942;37.314;2022-09-29T15:04:10;12.98;;;7.70;;
44137;SDS011;29800;55.942;37.314;2022-09-29T15:06:45;17.20;;;8.82;;
44137;SDS011;29800;55.942;37.314;2022-09-29T15:09:21;14.88;;;9.27;;
44137;SDS011;29800;55.942;37.314;2022-09-29T15:11:55;13.55;;;8.60;;
44137;SDS011;29800;55.942;37.314;2022-09-29T15:14:33;15.60;;;9.20;;
44137;SDS011;29800;55.942;37.314;2022-09-29T15:19:46;17.75;;;10.05;;
44137;SDS011;29800;55.942;37.314;2022-09-29T15:28:02;17.75;;;10.40;;
44137;SDS011;29800;55.942;37.314;2022-09-29T15:30:38;22.55;;;11.23;;
44137;SDS011;29800;55.942;37.314;2022-09-29T15:36:00;21.60;;;12.48;;
44137;SDS011;29800;55.942;37.314;2022-09-29T15:38:31;23.52;;;13.57;;
44137;SDS011;29800;55.942;37.314;2022-09-29T15:49:11;33.38;;;18.73;;
44137;SDS011;29800;55.942;37.314;2022-09-29T15:51:43;37.92;;;20.17;;
44137;SDS011;29800;55.942;37.314;2022-09-29T15:54:40;28.75;;;16.40;;
44137;SDS011;29800;55.942;37.314;2022-09-29T15:57:29;30.75;;;15.50;;
44137;SDS011;29800;55.942;37.314;2022-09-29T16:05:51;33.35;;;19.63;;
44137;SDS011;29800;55.942;37.314;2022-09-29T16:08:49;32.42;;;19.20;;
44137;SDS011;29800;55.942;37.314;2022-09-29T16:11:31;33.20;;;19.17;;
44137;SDS011;29800;55.942;37.314;2022-09-29T16:16:45;26.85;;;17.00;;
44137;SDS011;29800;55.942;37.314;2022-09-29T16:21:53;24.80;;;15.65;;
44137;SDS011;29800;55.942;37.314;2022-09-29T16:24:22;25.70;;;13.63;;
44137;SDS011;29800;55.942;37.314;2022-09-29T16:26:54;29.00;;;13.82;;
44137;SDS011;29800;55.942;37.314;2022-09-29T16:29:28;26.30;;;14.32;;
44137;SDS011;29800;55.942;37.314;2022-09-29T16:40:53;24.42;;;15.15;;
44137;SDS011;29800;55.942;37.314;2022-09-29T16:43:27;26.15;;;14.25;;
44137;SDS011;29800;55.942;37.314;2022-09-29T16:48:35;25.90;;;14.32;;
44137;SDS011;29800;55.942;37.314;2022-09-29T16:51:08;25.38;;;14.70;;
44137;SDS011;29800;55.942;37.314;2022-09-29T16:53:39;23.80;;;15.48;;
44137;SDS011;29800;55.942;37.314;2022-09-29T16:56:09;27.52;;;17.42;;
44137;SDS011;29800;55.942;37.314;2022-09-29T16:58:45;24.63;;;16.60;;
44137;SDS011;29800;55.942;37.314;2022-09-29T17:01:27;23.83;;;16.10;;
44137;SDS011;29800;55.942;37.314;2022-09-29T17:03:53;24.02;;;15.88;;
44137;SDS011;29800;55.942;37.314;2022-09-29T17:06:19;25.40;;;16.17;;
44137;SDS011;29800;55.942;37.314;2022-09-29T17:08:45;27.70;;;15.40;;
44137;SDS011;29800;55.942;37.314;2022-09-29T17:11:11;24.92;;;15.90;;
44137;SDS011;29800;55.942;37.314;2022-09-29T17:13:37;27.42;;;15.10;;
44137;SDS011;29800;55.942;37.314;2022-09-29T17:16:04;22.35;;;16.05;;
44137;SDS011;29800;55.942;37.314;2022-09-29T17:18:35;26.23;;;17.55;;
44137;SDS011;29800;55.942;37.314;2022-09-29T17:21:01;29.63;;;18.90;;
44137;SDS011;29800;55.942;37.314;2022-09-29T17:23:45;34.45;;;19.35;;
44137;SDS011;29800;55.942;37.314;2022-09-29T17:26:15;28.13;;;18.83;;
44137;SDS011;29800;55.942;37.314;2022-09-29T17:29:14;27.42;;;16.92;;
44137;SDS011;29800;55.942;37.314;2022-09-29T17:31:43;27.67;;;17.83;;
44137;SDS011;29800;55.942;37.314;2022-09-29T17:34:12;28.80;;;18.02;;
44137;SDS011;29800;55.942;37.314;2022-09-29T17:36:41;25.50;;;16.90;;
44137;SDS011;29800;55.942;37.314;2022-09-29T17:39:07;32.83;;;17.95;;
44137;SDS011;29800;55.942;37.314;2022-09-29T17:41:33;28.08;;;17.20;;
44137;SDS011;29800;55.942;37.314;2022-09-29T17:43:59;33.10;;;18.25;;
44137;SDS011;29800;55.942;37.314;2022-09-29T17:46:37;32.80;;;17.90;;
44137;SDS011;29800;55.942;37.314;2022-09-29T17:49:21;27.95;;;17.25;;
44137;SDS011;29800;55.942;37.314;2022-09-29T17:51:53;30.95;;;17.90;;
44137;SDS011;29800;55.942;37.314;2022-09-29T17:54:34;30.65;;;16.50;;
44137;SDS011;29800;55.942;37.314;2022-09-29T17:57:03;28.45;;;15.50;;
44137;SDS011;29800;55.942;37.314;2022-09-29T17:59:29;26.38;;;15.35;;
44137;SDS011;29800;55.942;37.314;2022-09-29T18:02:00;40.42;;;24.27;;
44137;SDS011;29800;55.942;37.314;2022-09-29T18:04:26;49.25;;;32.83;;
44137;SDS011;29800;55.942;37.314;2022-09-29T18:06:53;45.55;;;32.90;;
44137;SDS011;29800;55.942;37.314;2022-09-29T18:09:18;47.13;;;32.25;;
44137;SDS011;29800;55.942;37.314;2022-09-29T18:11:44;39.33;;;28.02;;
44137;SDS011;29800;55.942;37.314;2022-09-29T18:14:12;27.40;;;16.60;;
44137;SDS011;29800;55.942;37.314;2022-09-29T18:16:38;26.70;;;14.90;;
44137;SDS011;29800;55.942;37.314;2022-09-29T18:19:05;28.15;;;15.68;;
44137;SDS011;29800;55.942;37.314;2022-09-29T18:21:44;24.33;;;15.75;;
44137;SDS011;29800;55.942;37.314;2022-09-29T18:24:10;22.38;;;13.73;;
44137;SDS011;29800;55.942;37.314;2022-09-29T18:26:37;24.65;;;12.77;;
44137;SDS011;29800;55.942;37.314;2022-09-29T18:29:15;22.10;;;11.85;;
44137;SDS011;29800;55.942;37.314;2022-09-29T18:31:45;22.10;;;11.75;;
44137;SDS011;29800;55.942;37.314;2022-09-29T18:34:12;22.25;;;12.52;;
44137;SDS011;29800;55.942;37.314;2022-09-29T18:36:49;20.00;;;11.85;;
44137;SDS011;29800;55.942;37.314;2022-09-29T18:39:24;22.58;;;12.02;;
44137;SDS011;29800;55.942;37.314;2022-09-29T18:41:50;20.00;;;11.35;;
44137;SDS011;29800;55.942;37.314;2022-09-29T18:44:16;18.20;;;10.70;;
44137;SDS011;29800;55.942;37.314;2022-09-29T18:46:45;20.00;;;11.02;;
44137;SDS011;29800;55.942;37.314;2022-09-29T18:49:14;19.77;;;11.05;;
44137;SDS011;29800;55.942;37.314;2022-09-29T18:51:40;20.58;;;10.85;;
44137;SDS011;29800;55.942;37.314;2022-09-29T18:54:06;19.63;;;10.95;;
44137;SDS011;29800;55.942;37.314;2022-09-29T18:56:33;17.58;;;10.93;;
44137;SDS011;29800;55.942;37.314;2022-09-29T18:58:59;22.17;;;11.00;;